Terminal Aerodrome Forecast
Issued by NWS

Home | Current Version | Previous Version | Text Only | Print | Product List | Glossary On
Versions: 1 2 3 4 5 6 7 8 9 10 11 12 13 14 15 16 17 18 19 20
000
FTUS46 KLOX 101700 AAD
TAFBUR
TAF AMD
KBUR 101710Z 1017/1112 VRB03KT 6SM BR OVC018
     FM101800 17008KT P6SM SKC
     FM110500 VRB03KT P6SM SKC
     FM110900 VRB03KT P6SM BKN010=

USA.gov is the U.S. government's official web portal to all federal, state and local government web resources and services.